Time;durP1;ratioP1;P1;durP2;ratioP2;P2;SDS_P1;SDS_P2;PMS_P1;PMS_P2;Temp;Humidity;BMP_temperature;BMP_pressure;BME280_temperature;BME280_humidity;BME280_pressure;Samples;Min_cycle;Max_cycle;Signal;HPM_P1;HPM_P2
2022/04/14 00:02:20;;;;;;;;;;;13.40;99.90;;;;;;5051112;28;19927;-85
2022/04/14 00:04:46;;;;;;;;;;;13.40;99.90;;;;;;5053921;28;20399;-86
2022/04/14 00:07:11;;;;;;;;;;;13.40;99.90;;;;;;5050397;28;19921;-86
2022/04/14 00:09:37;;;;;;;;;;;13.40;99.90;;;;;;5049723;28;19916;-86
2022/04/14 00:12:03;;;;;;;;;;;13.40;99.90;;;;;;5066165;28;20380;-86
2022/04/14 00:14:28;;;;;;;;;;;13.40;99.90;;;;;;5055368;28;19966;-86
2022/04/14 00:16:54;;;;;;;;;;;13.40;99.90;;;;;;5040730;28;19920;-85
2022/04/14 00:19:19;;;;;;;;;;;13.40;99.90;;;;;;5046658;28;19928;-86
2022/04/14 00:21:45;;;;;;;;;;;13.40;99.90;;;;;;5061663;28;19971;-86
2022/04/14 00:24:11;;;;;;;;;;;13.30;99.90;;;;;;5053625;28;19917;-86
2022/04/14 00:26:36;;;;;;;;;;;13.30;99.90;;;;;;5068083;28;19917;-87
2022/04/14 00:29:02;;;;;;;;;;;13.30;99.90;;;;;;5062296;28;20254;-86
2022/04/14 00:31:27;;;;;;;;;;;13.30;99.90;;;;;;5070199;28;20005;-85
2022/04/14 00:33:53;;;;;;;;;;;13.20;99.90;;;;;;5060031;28;19966;-86
2022/04/14 00:36:18;;;;;;;;;;;13.20;99.90;;;;;;5052773;28;20697;-86
2022/04/14 00:38:44;;;;;;;;;;;13.20;99.90;;;;;;5048891;28;20633;-86
2022/04/14 00:41:09;;;;;;;;;;;13.20;99.90;;;;;;5037026;28;19916;-86
2022/04/14 00:43:35;;;;;;;;;;;13.20;99.90;;;;;;5055591;28;19919;-87
2022/04/14 00:46:00;;;;;;;;;;;13.20;99.90;;;;;;5042518;28;19913;-86
2022/04/14 00:48:29;;;;;;;;;;;13.20;99.90;;;;;;5063084;28;21257;-85
2022/04/14 00:50:55;;;;;;;;;;;13.20;99.90;;;;;;5051019;28;20414;-86
2022/04/14 00:53:22;;;;;;;;;;;13.20;99.90;;;;;;5053339;28;19925;-86
2022/04/14 00:55:48;;;;;;;;;;;13.20;99.90;;;;;;5053702;28;19913;-86
2022/04/14 00:58:13;;;;;;;;;;;13.20;99.90;;;;;;5048424;28;20345;-87
2022/04/14 01:00:39;;;;;;;;;;;13.20;99.90;;;;;;5055242;28;19962;-86
2022/04/14 01:03:05;;;;;;;;;;;13.20;99.90;;;;;;5052245;28;19917;-86
2022/04/14 01:05:31;;;;;;;;;;;13.20;99.90;;;;;;5058761;28;19913;-85
2022/04/14 01:07:57;;;;;;;;;;;13.20;99.90;;;;;;5043580;28;19917;-86
2022/04/14 01:10:23;;;;;;;;;;;13.20;99.90;;;;;;5064767;28;19916;-85
2022/04/14 01:12:48;;;;;;;;;;;13.10;99.90;;;;;;5050263;28;20270;-86
2022/04/14 01:15:14;;;;;;;;;;;13.10;99.90;;;;;;5032973;28;19917;-86
2022/04/14 01:17:40;;;;;;;;;;;13.10;99.90;;;;;;5040155;28;19917;-86
2022/04/14 01:20:07;;;;;;;;;;;13.10;99.90;;;;;;5032264;28;19913;-86
2022/04/14 01:22:35;;;;;;;;;;;13.10;99.90;;;;;;5049846;28;20007;-86
2022/04/14 01:25:01;;;;;;;;;;;13.10;99.90;;;;;;5061326;28;20043;-86
2022/04/14 01:27:27;;;;;;;;;;;13.10;99.90;;;;;;5037633;28;19917;-86
2022/04/14 01:29:52;;;;;;;;;;;13.10;99.90;;;;;;5067874;28;19915;-85
2022/04/14 01:32:19;;;;;;;;;;;13.10;99.90;;;;;;5038400;28;20027;-87
2022/04/14 01:34:44;;;;;;;;;;;13.10;99.90;;;;;;5042890;28;19970;-86
2022/04/14 01:37:10;;;;;;;;;;;13.10;99.90;;;;;;5069088;28;19920;-86
2022/04/14 01:39:36;;;;;;;;;;;13.10;99.90;;;;;;5068716;28;19916;-86
2022/04/14 01:42:01;;;;;;;;;;;13.10;99.90;;;;;;5049831;28;19936;-83
2022/04/14 01:44:27;;;;;;;;;;;13.20;99.90;;;;;;5061637;28;20409;-87
2022/04/14 01:46:52;;;;;;;;;;;13.20;99.90;;;;;;5060123;28;19963;-86
2022/04/14 01:49:18;;;;;;;;;;;13.20;99.90;;;;;;5076575;22;20871;-84
2022/04/14 01:51:43;;;;;;;;;;;13.20;99.90;;;;;;5031228;28;19924;-85
2022/04/14 01:54:09;;;;;;;;;;;13.20;99.90;;;;;;5024870;28;20027;-86
2022/04/14 01:56:34;;;;;;;;;;;13.10;99.90;;;;;;5039840;28;19925;-86
2022/04/14 01:59:00;;;;;;;;;;;13.10;99.90;;;;;;5040343;28;19923;-82
2022/04/14 02:01:26;;;;;;;;;;;13.10;99.90;;;;;;5026536;28;20362;-84
2022/04/14 02:03:52;;;;;;;;;;;13.10;99.90;;;;;;5041892;28;19948;-83
2022/04/14 02:06:18;;;;;;;;;;;13.20;99.90;;;;;;5032081;28;19929;-84
2022/04/14 02:08:44;;;;;;;;;;;13.10;99.90;;;;;;5042015;28;20369;-83
2022/04/14 02:11:10;;;;;;;;;;;13.10;99.90;;;;;;5049136;28;19962;-84
2022/04/14 02:13:36;;;;;;;;;;;13.10;99.90;;;;;;5040166;28;20408;-84
2022/04/14 02:16:02;;;;;;;;;;;13.10;99.90;;;;;;5032761;28;20355;-84
2022/04/14 02:18:27;;;;;;;;;;;13.10;99.90;;;;;;5032069;28;19917;-84
2022/04/14 02:20:53;;;;;;;;;;;13.10;99.90;;;;;;5044940;28;19917;-84
2022/04/14 02:23:19;;;;;;;;;;;13.10;99.90;;;;;;5036487;28;19913;-84
2022/04/14 02:25:45;;;;;;;;;;;13.10;99.90;;;;;;5040416;28;20011;-83
2022/04/14 02:28:11;;;;;;;;;;;13.10;99.90;;;;;;5044272;28;20007;-84
2022/04/14 02:30:36;;;;;;;;;;;13.10;99.90;;;;;;5034582;28;19924;-82
2022/04/14 02:33:02;;;;;;;;;;;13.10;99.90;;;;;;5026230;28;20392;-84
2022/04/14 02:35:28;;;;;;;;;;;13.10;99.90;;;;;;5033015;28;19921;-84
2022/04/14 02:37:56;;;;;;;;;;;13.10;99.90;;;;;;5042381;28;19923;-83
2022/04/14 02:40:23;;;;;;;;;;;13.10;99.90;;;;;;5034958;28;19955;-84
2022/04/14 02:42:49;;;;;;;;;;;13.00;99.90;;;;;;5044015;28;20314;-85
2022/04/14 02:45:15;;;;;;;;;;;13.00;99.90;;;;;;5045455;28;19982;-84
2022/04/14 02:47:40;;;;;;;;;;;13.00;99.90;;;;;;5023752;28;19917;-85
2022/04/14 02:50:06;;;;;;;;;;;13.00;99.90;;;;;;5029504;28;19920;-84
2022/04/14 02:52:31;;;;;;;;;;;13.00;99.90;;;;;;5041724;28;19987;-83
2022/04/14 02:54:57;;;;;;;;;;;13.00;99.90;;;;;;5039197;28;19928;-84
2022/04/14 02:57:22;;;;;;;;;;;13.00;99.90;;;;;;5043705;28;19921;-83
2022/04/14 02:59:48;;;;;;;;;;;12.90;99.90;;;;;;5034463;28;19975;-84
2022/04/14 03:02:13;;;;;;;;;;;12.90;99.90;;;;;;5036028;28;19917;-83
2022/04/14 03:04:39;;;;;;;;;;;12.90;99.90;;;;;;5041428;28;19913;-85
2022/04/14 03:07:05;;;;;;;;;;;12.90;99.90;;;;;;5024042;28;19921;-85
2022/04/14 03:09:30;;;;;;;;;;;12.90;99.90;;;;;;5047154;28;19956;-84
2022/04/14 03:11:56;;;;;;;;;;;12.90;99.90;;;;;;5032966;28;19928;-84
2022/04/14 03:14:21;;;;;;;;;;;12.80;99.90;;;;;;5033915;28;19924;-84
2022/04/14 03:16:47;;;;;;;;;;;12.80;99.90;;;;;;5016009;28;20393;-85
2022/04/14 03:19:12;;;;;;;;;;;12.80;99.90;;;;;;5034819;28;19998;-85
2022/04/14 03:21:38;;;;;;;;;;;12.80;99.90;;;;;;5030303;28;20408;-84
2022/04/14 03:24:04;;;;;;;;;;;12.70;99.90;;;;;;5037514;28;19917;-84
2022/04/14 03:26:29;;;;;;;;;;;12.70;99.90;;;;;;5041278;28;19921;-85
2022/04/14 03:28:54;;;;;;;;;;;12.70;99.90;;;;;;5017070;28;19923;-85
2022/04/14 03:31:20;;;;;;;;;;;12.60;99.90;;;;;;5015527;28;20286;-84
2022/04/14 03:33:45;;;;;;;;;;;12.60;99.90;;;;;;5036222;28;19993;-86
2022/04/14 03:36:11;;;;;;;;;;;12.60;99.90;;;;;;5049963;28;20389;-84
2022/04/14 03:38:36;;;;;;;;;;;12.50;99.90;;;;;;5038262;28;19921;-84
2022/04/14 03:41:04;;;;;;;;;;;12.50;99.90;;;;;;5018243;28;19936;-86
2022/04/14 03:43:31;;;;;;;;;;;12.50;99.90;;;;;;5041635;28;20373;-85
2022/04/14 03:45:56;;;;;;;;;;;12.40;99.90;;;;;;5026618;28;20293;-86
2022/04/14 03:48:21;;;;;;;;;;;12.50;99.90;;;;;;5022560;28;19916;-86
2022/04/14 03:50:47;;;;;;;;;;;12.50;99.90;;;;;;5046070;28;20454;-84
2022/04/14 03:53:13;;;;;;;;;;;12.40;99.90;;;;;;5031612;28;19913;-84
2022/04/14 03:55:38;;;;;;;;;;;12.40;99.90;;;;;;5033676;28;19928;-84
2022/04/14 03:58:03;;;;;;;;;;;12.40;99.90;;;;;;5035129;28;19913;-82
2022/04/14 04:00:29;;;;;;;;;;;12.40;99.90;;;;;;5032143;28;19917;-84
2022/04/14 04:02:54;;;;;;;;;;;12.40;99.90;;;;;;5044212;28;19920;-84
2022/04/14 04:05:20;;;;;;;;;;;12.40;99.90;;;;;;5039077;28;19928;-86
2022/04/14 04:07:45;;;;;;;;;;;12.30;99.90;;;;;;5032294;28;19913;-86
2022/04/14 04:10:11;;;;;;;;;;;12.30;99.90;;;;;;5018551;28;19983;-86
2022/04/14 04:12:36;;;;;;;;;;;12.30;99.90;;;;;;5051403;28;20219;-86
2022/04/14 04:15:02;;;;;;;;;;;12.30;99.90;;;;;;5043021;28;19964;-84
2022/04/14 04:17:27;;;;;;;;;;;12.30;99.90;;;;;;5040189;28;19921;-84
2022/04/14 04:19:55;;;;;;;;;;;12.30;99.90;;;;;;5025658;28;19924;-84
2022/04/14 04:22:20;;;;;;;;;;;12.30;99.90;;;;;;5028298;28;19921;-84
2022/04/14 04:24:46;;;;;;;;;;;12.20;99.90;;;;;;5025896;28;19967;-85
2022/04/14 04:27:11;;;;;;;;;;;12.30;99.90;;;;;;5053173;28;19921;-86
2022/04/14 04:29:37;;;;;;;;;;;12.30;99.90;;;;;;5036977;28;19921;-86
2022/04/14 04:32:02;;;;;;;;;;;12.30;99.90;;;;;;5048823;28;20389;-83
2022/04/14 04:34:28;;;;;;;;;;;12.30;99.90;;;;;;5040716;28;19917;-86
2022/04/14 04:36:53;;;;;;;;;;;12.30;99.90;;;;;;5040527;28;19966;-84
2022/04/14 04:39:19;;;;;;;;;;;12.20;99.90;;;;;;5046685;28;19980;-86
2022/04/14 04:41:45;;;;;;;;;;;12.20;99.90;;;;;;5044201;28;19925;-84
2022/04/14 04:44:10;;;;;;;;;;;12.20;99.90;;;;;;5038083;28;19921;-86
2022/04/14 04:46:36;;;;;;;;;;;12.20;99.90;;;;;;5022950;28;19917;-86
2022/04/14 04:49:01;;;;;;;;;;;12.20;99.90;;;;;;5047579;28;19917;-85
2022/04/14 04:51:27;;;;;;;;;;;12.20;99.90;;;;;;5043165;28;19924;-84
2022/04/14 04:53:53;;;;;;;;;;;12.20;99.90;;;;;;5039339;28;19935;-86
2022/04/14 04:56:19;;;;;;;;;;;12.20;99.90;;;;;;5051058;28;19921;-85
2022/04/14 04:58:45;;;;;;;;;;;12.20;99.90;;;;;;5039572;28;19913;-84
2022/04/14 05:01:10;;;;;;;;;;;12.20;99.90;;;;;;5034804;28;19920;-86
2022/04/14 05:03:36;;;;;;;;;;;12.30;99.90;;;;;;5037721;28;19992;-85
2022/04/14 05:06:01;;;;;;;;;;;12.20;99.90;;;;;;5022309;28;19913;-82
2022/04/14 05:08:27;;;;;;;;;;;12.30;99.90;;;;;;5031803;28;19921;-83
2022/04/14 05:10:52;;;;;;;;;;;12.30;99.90;;;;;;5031599;28;19917;-83
2022/04/14 05:13:18;;;;;;;;;;;12.30;99.90;;;;;;5049677;28;19920;-83
2022/04/14 05:15:43;;;;;;;;;;;12.30;99.90;;;;;;5018529;28;20444;-83
2022/04/14 05:18:09;;;;;;;;;;;12.30;99.90;;;;;;5029902;28;19966;-83
2022/04/14 05:20:39;;;;;;;;;;;12.30;99.90;;;;;;5032775;28;19920;-84
2022/04/14 05:23:11;;;;;;;;;;;12.30;99.90;;;;;;5030175;28;20396;-82
2022/04/14 05:25:40;;;;;;;;;;;12.30;99.90;;;;;;5019886;28;19916;-84
2022/04/14 05:28:06;;;;;;;;;;;12.30;99.90;;;;;;5021665;28;20011;-83
2022/04/14 05:30:31;;;;;;;;;;;12.40;99.90;;;;;;5040423;28;20007;-82
2022/04/14 05:32:57;;;;;;;;;;;12.40;99.90;;;;;;5029170;28;19921;-83
2022/04/14 05:35:22;;;;;;;;;;;12.50;99.90;;;;;;5013411;28;19916;-83
2022/04/14 05:37:48;;;;;;;;;;;12.50;99.90;;;;;;5044329;28;19924;-84
2022/04/14 05:40:13;;;;;;;;;;;12.60;99.90;;;;;;5031595;28;19916;-83
2022/04/14 05:42:42;;;;;;;;;;;12.70;99.90;;;;;;5038797;28;19917;-84
2022/04/14 05:45:08;;;;;;;;;;;12.70;99.90;;;;;;5041262;28;19920;-83
2022/04/14 05:47:33;;;;;;;;;;;12.70;99.90;;;;;;5032806;28;20019;-85
2022/04/14 05:49:59;;;;;;;;;;;12.80;99.90;;;;;;5023890;28;20365;-83
2022/04/14 05:52:24;;;;;;;;;;;12.80;99.90;;;;;;5038870;28;20056;-86
2022/04/14 05:54:50;;;;;;;;;;;12.80;99.90;;;;;;5022614;28;20315;-83
2022/04/14 05:57:16;;;;;;;;;;;12.80;99.90;;;;;;5036885;28;20401;-85
2022/04/14 05:59:41;;;;;;;;;;;12.80;99.90;;;;;;5036461;28;19952;-84
2022/04/14 06:02:07;;;;;;;;;;;12.90;99.90;;;;;;5049961;28;19920;-85
2022/04/14 06:04:32;;;;;;;;;;;12.90;99.90;;;;;;5041033;28;20375;-84
2022/04/14 06:06:58;;;;;;;;;;;12.90;99.90;;;;;;5035436;28;20376;-84
2022/04/14 06:09:23;;;;;;;;;;;13.00;99.90;;;;;;5039598;28;20020;-85
2022/04/14 06:11:48;;;;;;;;;;;13.00;99.90;;;;;;5016477;28;19913;-84
2022/04/14 06:14:14;;;;;;;;;;;13.00;99.90;;;;;;5016161;28;19917;-84
2022/04/14 06:16:39;;;;;;;;;;;13.00;99.90;;;;;;5026423;28;19967;-84
2022/04/14 06:19:05;;;;;;;;;;;13.10;99.90;;;;;;5018102;28;19922;-84
2022/04/14 06:21:30;;;;;;;;;;;13.10;99.90;;;;;;5036393;28;19925;-83
2022/04/14 06:23:56;;;;;;;;;;;13.10;99.90;;;;;;5050957;28;19921;-86
2022/04/14 06:26:22;;;;;;;;;;;13.10;99.90;;;;;;5050587;28;19919;-85
2022/04/14 06:28:48;;;;;;;;;;;13.20;99.90;;;;;;5048852;28;19920;-83
2022/04/14 06:31:14;;;;;;;;;;;13.20;99.90;;;;;;5049236;28;20655;-85
2022/04/14 06:33:39;;;;;;;;;;;13.20;99.90;;;;;;5029017;28;20284;-86
2022/04/14 06:36:05;;;;;;;;;;;13.20;99.90;;;;;;5039717;28;19921;-86
2022/04/14 06:38:30;;;;;;;;;;;13.30;99.90;;;;;;5041304;28;20193;-83
2022/04/14 06:40:56;;;;;;;;;;;13.30;99.90;;;;;;5043596;28;19978;-84
2022/04/14 06:43:21;;;;;;;;;;;13.40;99.90;;;;;;5026200;28;19924;-83
2022/04/14 06:45:50;;;;;;;;;;;13.50;99.90;;;;;;5042553;28;19931;-85
2022/04/14 06:48:15;;;;;;;;;;;13.50;99.90;;;;;;5044929;28;20548;-83
2022/04/14 06:50:41;;;;;;;;;;;13.60;99.90;;;;;;5033585;28;19956;-85
2022/04/14 06:53:06;;;;;;;;;;;13.70;99.90;;;;;;5044167;28;20267;-85
2022/04/14 06:55:32;;;;;;;;;;;13.80;99.90;;;;;;5033035;28;19973;-84
2022/04/14 06:57:58;;;;;;;;;;;14.00;99.90;;;;;;5036200;28;20318;-84
2022/04/14 07:00:24;;;;;;;;;;;14.10;99.90;;;;;;5046682;28;19963;-84
2022/04/14 07:02:52;;;;;;;;;;;14.30;99.90;;;;;;5039772;28;19909;-85
2022/04/14 07:05:18;;;;;;;;;;;14.50;99.90;;;;;;5036775;28;19921;-85
2022/04/14 07:07:44;;;;;;;;;;;14.70;99.90;;;;;;5043978;28;19913;-86
2022/04/14 07:10:10;;;;;;;;;;;14.80;99.90;;;;;;5036771;28;20320;-85
2022/04/14 07:12:36;;;;;;;;;;;15.00;99.90;;;;;;5037056;28;19917;-83
2022/04/14 07:15:01;;;;;;;;;;;15.10;99.90;;;;;;5027907;28;19986;-84
2022/04/14 07:17:27;;;;;;;;;;;15.20;99.90;;;;;;5033795;28;20328;-84
2022/04/14 07:19:52;;;;;;;;;;;15.40;99.90;;;;;;5033499;28;19921;-86
2022/04/14 07:22:18;;;;;;;;;;;15.60;99.90;;;;;;5042681;28;19921;-86
2022/04/14 07:24:48;;;;;;;;;;;15.70;99.90;;;;;;5039584;28;19971;-85
2022/04/14 07:27:14;;;;;;;;;;;15.70;99.90;;;;;;5039771;28;20023;-86
2022/04/14 07:29:40;;;;;;;;;;;15.70;99.90;;;;;;5026040;28;20396;-85
2022/04/14 07:32:05;;;;;;;;;;;15.80;99.90;;;;;;5025343;28;19916;-85
2022/04/14 07:34:31;;;;;;;;;;;15.80;99.90;;;;;;5014496;28;19960;-85
2022/04/14 07:36:56;;;;;;;;;;;15.90;99.90;;;;;;5043144;28;19925;-86
2022/04/14 07:39:22;;;;;;;;;;;15.90;99.90;;;;;;5053015;28;19909;-84
2022/04/14 07:41:47;;;;;;;;;;;16.00;99.90;;;;;;5052505;28;19967;-85
2022/04/14 07:44:13;;;;;;;;;;;16.10;99.90;;;;;;5052360;28;20455;-84
2022/04/14 07:46:38;;;;;;;;;;;16.10;99.90;;;;;;5052249;28;19913;-86
2022/04/14 07:49:06;;;;;;;;;;;16.20;99.90;;;;;;5035151;28;20455;-84
2022/04/14 07:51:31;;;;;;;;;;;16.20;99.90;;;;;;5079115;22;19936;-81
2022/04/14 07:53:57;;;;;;;;;;;16.30;99.90;;;;;;5050955;28;19909;-81
2022/04/14 07:56:22;;;;;;;;;;;16.40;99.90;;;;;;5034008;28;19970;-81
2022/04/14 07:58:49;;;;;;;;;;;16.50;99.90;;;;;;5033846;28;20015;-81
2022/04/14 08:01:16;;;;;;;;;;;16.60;99.90;;;;;;5051009;28;19920;-81
2022/04/14 08:03:42;;;;;;;;;;;16.70;99.90;;;;;;5034166;28;20402;-81
2022/04/14 08:06:08;;;;;;;;;;;16.70;99.90;;;;;;5033999;28;19960;-82
2022/04/14 08:08:34;;;;;;;;;;;16.80;99.90;;;;;;5050393;28;19913;-81
2022/04/14 08:11:03;;;;;;;;;;;16.80;99.90;;;;;;5033800;28;19920;-81
2022/04/14 08:13:30;;;;;;;;;;;16.80;99.90;;;;;;5034333;28;19913;-81
2022/04/14 08:16:01;;;;;;;;;;;16.90;99.80;;;;;;5033853;28;19929;-82
2022/04/14 08:18:26;;;;;;;;;;;16.90;96.50;;;;;;5050278;28;19983;-81
2022/04/14 08:20:52;;;;;;;;;;;16.90;98.90;;;;;;5033739;28;19928;-82
2022/04/14 08:23:18;;;;;;;;;;;16.90;97.80;;;;;;5032916;28;19936;-82
2022/04/14 08:25:43;;;;;;;;;;;17.00;99.30;;;;;;5033441;28;19948;-82
2022/04/14 08:28:09;;;;;;;;;;;17.10;98.30;;;;;;5033400;28;19913;-81
2022/04/14 08:30:35;;;;;;;;;;;17.20;98.40;;;;;;5033396;28;19971;-81
2022/04/14 08:33:03;;;;;;;;;;;17.30;96.50;;;;;;5050239;28;20444;-81
2022/04/14 08:35:30;;;;;;;;;;;17.40;94.40;;;;;;5049861;28;19920;-81
2022/04/14 08:37:56;;;;;;;;;;;17.50;94.90;;;;;;5050049;28;19962;-81
2022/04/14 08:40:22;;;;;;;;;;;17.50;93.40;;;;;;5033094;28;19912;-82
2022/04/14 08:42:50;;;;;;;;;;;17.50;93.10;;;;;;5033377;28;19958;-81
2022/04/14 08:45:16;;;;;;;;;;;17.60;94.80;;;;;;5049732;28;19944;-82
2022/04/14 08:47:42;;;;;;;;;;;17.70;93.20;;;;;;5033168;28;19951;-81
2022/04/14 08:50:12;;;;;;;;;;;17.90;92.90;;;;;;5032922;28;19921;-81
2022/04/14 08:52:39;;;;;;;;;;;18.00;93.20;;;;;;5049729;28;19916;-82
2022/04/14 08:55:05;;;;;;;;;;;18.10;91.80;;;;;;5049646;28;19963;-82
2022/04/14 08:57:32;;;;;;;;;;;18.10;88.60;;;;;;5033052;28;19927;-81
2022/04/14 08:59:58;;;;;;;;;;;18.10;90.40;;;;;;5049618;28;20450;-81
2022/04/14 09:02:24;;;;;;;;;;;18.10;90.20;;;;;;5049450;28;20012;-81
2022/04/14 09:04:51;;;;;;;;;;;18.20;89.50;;;;;;5050235;28;19909;-82
2022/04/14 09:07:17;;;;;;;;;;;18.20;92.20;;;;;;5049331;28;19913;-81
2022/04/14 09:09:44;;;;;;;;;;;18.20;87.10;;;;;;5049331;28;19921;-81
2022/04/14 09:12:09;;;;;;;;;;;18.20;86.70;;;;;;5049494;28;19909;-82
2022/04/14 09:14:37;;;;;;;;;;;18.20;87.30;;;;;;5049530;28;19909;-82
2022/04/14 09:17:06;;;;;;;;;;;18.30;91.60;;;;;;5049349;28;19916;-82
2022/04/14 09:19:32;;;;;;;;;;;18.30;89.40;;;;;;5032688;28;19920;-82
2022/04/14 09:21:59;;;;;;;;;;;18.40;90.00;;;;;;5032626;28;20279;-82
2022/04/14 09:24:40;;;;;;;;;;;18.50;90.60;;;;;;5033024;28;19921;-81
2022/04/14 09:27:06;;;;;;;;;;;18.40;86.00;;;;;;5050227;28;19912;-82
2022/04/14 09:29:32;;;;;;;;;;;18.50;88.10;;;;;;5033142;28;20282;-82
2022/04/14 09:31:57;;;;;;;;;;;18.50;87.20;;;;;;5050695;28;19917;-82
2022/04/14 09:34:48;;;;;;;;;;;18.60;86.00;;;;;;5051776;28;19909;-83
2022/04/14 09:37:14;;;;;;;;;;;18.60;86.90;;;;;;5054608;28;19923;-82
2022/04/14 09:39:53;;;;;;;;;;;18.70;87.40;;;;;;5037869;28;19913;-82
2022/04/14 09:42:26;;;;;;;;;;;18.70;83.00;;;;;;5053932;28;20003;-82
2022/04/14 09:44:52;;;;;;;;;;;18.90;86.30;;;;;;5053484;28;19908;-82
2022/04/14 09:47:24;;;;;;;;;;;19.00;90.00;;;;;;5053495;28;19909;-82
2022/04/14 09:49:50;;;;;;;;;;;19.20;85.20;;;;;;5037674;28;19920;-83
2022/04/14 09:52:15;;;;;;;;;;;19.30;86.70;;;;;;5037624;28;19917;-82
2022/04/14 09:54:41;;;;;;;;;;;19.40;87.70;;;;;;5053685;28;19959;-82
2022/04/14 09:57:09;;;;;;;;;;;19.30;78.40;;;;;;5054617;28;19913;-81
2022/04/14 09:59:37;;;;;;;;;;;19.20;77.90;;;;;;5052797;28;19960;-82
2022/04/14 10:02:16;;;;;;;;;;;19.10;78.40;;;;;;5053344;28;19909;-82
2022/04/14 10:04:51;;;;;;;;;;;18.90;79.90;;;;;;5054643;28;19913;-82
2022/04/14 10:07:17;;;;;;;;;;;18.70;78.90;;;;;;5056237;28;20201;-83
2022/04/14 10:09:44;;;;;;;;;;;18.60;76.10;;;;;;5039330;28;19959;-82
2022/04/14 10:12:30;;;;;;;;;;;18.60;76.90;;;;;;5055472;28;20337;-82
2022/04/14 10:14:56;;;;;;;;;;;18.40;75.40;;;;;;5055130;28;19956;-82
2022/04/14 10:17:25;;;;;;;;;;;18.30;78.80;;;;;;5055140;28;19954;-82
2022/04/14 10:19:50;;;;;;;;;;;18.20;79.70;;;;;;5054919;28;19909;-82
2022/04/14 10:22:16;;;;;;;;;;;18.20;80.70;;;;;;5036652;28;19920;-82
2022/04/14 10:24:43;;;;;;;;;;;18.30;83.80;;;;;;5053384;28;20338;-82
2022/04/14 10:27:09;;;;;;;;;;;18.40;83.70;;;;;;5036735;28;19920;-82
2022/04/14 10:29:36;;;;;;;;;;;18.50;79.40;;;;;;5036345;28;19916;-82
2022/04/14 10:32:01;;;;;;;;;;;18.50;81.50;;;;;;5050341;28;19940;-81
2022/04/14 10:34:28;;;;;;;;;;;18.50;82.40;;;;;;5044030;28;19914;-81
2022/04/14 10:36:54;;;;;;;;;;;18.50;78.00;;;;;;5025527;28;20902;-82
2022/04/14 10:39:20;;;;;;;;;;;18.60;82.60;;;;;;5032128;28;19932;-82
2022/04/14 10:41:48;;;;;;;;;;;18.50;80.50;;;;;;5042018;28;20283;-83
2022/04/14 10:44:19;;;;;;;;;;;18.60;77.70;;;;;;5028162;28;19921;-83
2022/04/14 10:46:48;;;;;;;;;;;18.70;79.90;;;;;;5034074;28;19921;-83
2022/04/14 10:49:15;;;;;;;;;;;18.70;75.10;;;;;;5018611;28;19947;-84
2022/04/14 10:51:41;;;;;;;;;;;18.80;74.60;;;;;;5028009;28;19925;-84
2022/04/14 10:54:08;;;;;;;;;;;19.00;76.20;;;;;;5039616;28;19939;-84
2022/04/14 10:56:34;;;;;;;;;;;19.20;76.80;;;;;;5038164;28;20349;-83
2022/04/14 10:59:03;;;;;;;;;;;19.30;72.90;;;;;;5037066;28;19916;-84
2022/04/14 11:01:48;;;;;;;;;;;19.50;74.20;;;;;;5033168;28;19963;-83
2022/04/14 11:04:23;;;;;;;;;;;19.70;75.00;;;;;;5047673;28;20391;-82
2022/04/14 11:06:51;;;;;;;;;;;19.80;67.90;;;;;;5023024;28;19923;-82
2022/04/14 11:09:35;;;;;;;;;;;19.90;65.50;;;;;;5042534;28;19920;-83
2022/04/14 11:12:01;;;;;;;;;;;19.90;63.90;;;;;;5038944;28;19974;-82
2022/04/14 11:14:27;;;;;;;;;;;20.00;62.50;;;;;;5040914;28;19917;-82
2022/04/14 11:16:53;;;;;;;;;;;19.90;59.90;;;;;;5047974;28;19927;-82
2022/04/14 11:19:19;;;;;;;;;;;19.80;63.90;;;;;;5019460;28;19917;-82
2022/04/14 11:24:38;;;;;;;;;;;19.80;67.90;;;;;;5044872;28;19919;-82
2022/04/14 11:27:11;;;;;;;;;;;19.90;61.00;;;;;;5034618;28;20343;-82
2022/04/14 11:29:37;;;;;;;;;;;19.80;64.50;;;;;;5029384;28;19917;-83
2022/04/14 11:32:03;;;;;;;;;;;19.80;65.50;;;;;;5047016;28;19913;-85
2022/04/14 11:34:32;;;;;;;;;;;19.90;66.00;;;;;;5018226;28;20035;-84
2022/04/14 11:36:59;;;;;;;;;;;20.00;63.00;;;;;;5026658;28;19921;-85
2022/04/14 11:39:25;;;;;;;;;;;20.10;60.90;;;;;;5047893;28;19923;-85
2022/04/14 11:41:55;;;;;;;;;;;20.30;60.00;;;;;;5028078;28;19917;-83
2022/04/14 11:44:30;;;;;;;;;;;20.60;60.00;;;;;;5040226;28;19913;-83
2022/04/14 11:46:56;;;;;;;;;;;20.70;60.70;;;;;;5036258;28;19956;-83
2022/04/14 11:49:26;;;;;;;;;;;21.00;59.10;;;;;;5046464;28;19952;-82
2022/04/14 11:51:53;;;;;;;;;;;21.10;57.60;;;;;;5020104;28;20295;-83
2022/04/14 11:54:21;;;;;;;;;;;21.10;58.60;;;;;;5039174;28;19978;-82
2022/04/14 11:56:51;;;;;;;;;;;21.10;56.60;;;;;;5046941;28;19922;-83
2022/04/14 11:59:36;;;;;;;;;;;21.10;57.00;;;;;;5037113;28;19924;-83
2022/04/14 12:02:03;;;;;;;;;;;21.00;55.80;;;;;;5019770;28;19952;-85
2022/04/14 12:04:39;;;;;;;;;;;20.80;56.70;;;;;;5048325;28;19923;-84
2022/04/14 12:07:06;;;;;;;;;;;20.60;56.60;;;;;;5035847;28;19917;-84
2022/04/14 12:09:31;;;;;;;;;;;20.40;56.70;;;;;;5037799;28;19913;-84
2022/04/14 12:12:07;;;;;;;;;;;20.30;59.20;;;;;;5026919;28;19971;-83
2022/04/14 12:14:32;;;;;;;;;;;20.10;60.60;;;;;;5033916;28;19917;-82
2022/04/14 12:16:58;;;;;;;;;;;19.90;61.80;;;;;;5045124;28;19921;-82
2022/04/14 12:19:38;;;;;;;;;;;19.80;65.40;;;;;;5039413;28;19924;-81
2022/04/14 12:22:05;;;;;;;;;;;19.80;65.70;;;;;;5050863;28;19909;-81
2022/04/14 12:24:30;;;;;;;;;;;19.60;69.60;;;;;;5046240;28;20413;-82
2022/04/14 12:26:57;;;;;;;;;;;19.50;67.70;;;;;;5038488;28;19913;-83
2022/04/14 12:29:22;;;;;;;;;;;19.50;68.30;;;;;;5044893;28;19944;-82
2022/04/14 12:31:49;;;;;;;;;;;19.40;66.20;;;;;;5039798;28;19948;-82
2022/04/14 12:34:14;;;;;;;;;;;19.40;67.90;;;;;;5035668;28;20434;-82
2022/04/14 12:36:40;;;;;;;;;;;19.50;70.30;;;;;;5017104;28;19925;-81
2022/04/14 12:39:15;;;;;;;;;;;19.50;75.20;;;;;;5046646;28;19913;-82
2022/04/14 12:41:41;;;;;;;;;;;19.50;76.10;;;;;;5038929;28;19913;-82
2022/04/14 12:44:06;;;;;;;;;;;19.60;66.70;;;;;;5017577;28;19916;-82
2022/04/14 12:46:39;;;;;;;;;;;19.70;62.70;;;;;;5035370;28;19917;-82
2022/04/14 12:49:06;;;;;;;;;;;19.80;68.00;;;;;;5045673;28;20471;-82
2022/04/14 12:51:35;;;;;;;;;;;20.00;70.60;;;;;;5041885;28;20296;-81
2022/04/14 12:54:01;;;;;;;;;;;20.10;63.20;;;;;;5046569;28;20378;-81
2022/04/14 12:56:27;;;;;;;;;;;20.30;59.90;;;;;;5022221;28;19933;-81
2022/04/14 12:59:13;;;;;;;;;;;20.40;56.80;;;;;;5037802;28;19978;-81
2022/04/14 13:01:46;;;;;;;;;;;20.40;58.50;;;;;;5040434;28;20264;-82
2022/04/14 13:04:12;;;;;;;;;;;20.30;64.70;;;;;;5017465;28;20589;-81
2022/04/14 13:06:38;;;;;;;;;;;20.40;58.10;;;;;;5020728;28;20343;-81
2022/04/14 13:09:16;;;;;;;;;;;20.40;57.40;;;;;;5036900;28;19921;-82
2022/04/14 13:11:42;;;;;;;;;;;20.50;56.20;;;;;;5030775;28;19909;-81
2022/04/14 13:14:34;;;;;;;;;;;20.50;63.40;;;;;;5049987;28;19909;-81
2022/04/14 13:17:00;;;;;;;;;;;20.60;58.30;;;;;;5047940;28;19978;-81
2022/04/14 13:19:26;;;;;;;;;;;20.60;58.40;;;;;;5043231;28;20031;-82
2022/04/14 13:21:52;;;;;;;;;;;20.70;58.60;;;;;;5021880;28;19944;-82
2022/04/14 13:24:18;;;;;;;;;;;20.70;58.10;;;;;;5024379;28;19978;-81
2022/04/14 13:26:44;;;;;;;;;;;20.50;59.80;;;;;;5031940;28;19963;-82
2022/04/14 13:29:11;;;;;;;;;;;20.30;58.10;;;;;;5047256;28;20012;-82
2022/04/14 13:31:37;;;;;;;;;;;20.20;60.10;;;;;;5034929;28;19913;-81
2022/04/14 13:34:02;;;;;;;;;;;20.00;60.20;;;;;;5034540;28;19941;-82
2022/04/14 13:36:33;;;;;;;;;;;19.70;61.40;;;;;;5042157;28;19971;-83
2022/04/14 13:39:00;;;;;;;;;;;19.50;66.30;;;;;;5029667;28;19913;-82
2022/04/14 13:41:26;;;;;;;;;;;19.50;62.80;;;;;;5035493;28;20356;-82
2022/04/14 13:43:51;;;;;;;;;;;19.60;61.30;;;;;;5029477;28;19928;-83
2022/04/14 13:46:17;;;;;;;;;;;19.70;61.30;;;;;;5040665;28;19913;-82
2022/04/14 13:48:42;;;;;;;;;;;19.90;62.30;;;;;;5039978;28;19986;-83
2022/04/14 13:51:10;;;;;;;;;;;20.00;59.50;;;;;;5040030;28;19963;-82
2022/04/14 13:53:36;;;;;;;;;;;20.10;60.50;;;;;;5016305;28;19917;-83
2022/04/14 13:56:02;;;;;;;;;;;20.30;65.00;;;;;;5048003;23;19929;-86
2022/04/14 13:58:28;;;;;;;;;;;20.40;62.30;;;;;;5049900;28;19924;-85
2022/04/14 14:00:53;;;;;;;;;;;20.30;58.30;;;;;;5050063;28;20339;-85
2022/04/14 14:03:19;;;;;;;;;;;20.10;57.40;;;;;;5033817;28;19925;-85
2022/04/14 14:05:44;;;;;;;;;;;20.00;58.40;;;;;;5052303;28;19931;-85
2022/04/14 14:08:10;;;;;;;;;;;19.90;56.90;;;;;;5050162;28;19917;-85
2022/04/14 14:10:36;;;;;;;;;;;20.00;58.20;;;;;;5050695;28;19921;-85
2022/04/14 14:13:02;;;;;;;;;;;20.10;60.60;;;;;;5050702;28;19940;-85
2022/04/14 14:15:28;;;;;;;;;;;20.30;60.10;;;;;;5051051;28;20388;-85
2022/04/14 14:17:53;;;;;;;;;;;20.30;57.00;;;;;;5034393;28;19927;-85